Nambe, New Mexico
Current Conditions -  °F | °C
As of 5:53 AM on Thursday 30 Oct 2014 (Local Time) from KSAF Reporting Station
Clear Clear  
Wind Chill: 31°   Ceiling: Unl
Heat Index: 39°   Visibility: 10mi
Dew Point: 11°   Wind: 14mph
Humidity: 32%   Direction: 10°N
Pressure: 30.31"   Gusts: NA
Location:  35.7017°N, 105.921°W
Report Text: KSAF 301153Z AUTO 01012KT 10SM CLR 04/M12 A3031 RMK AO2 SLP206 T00391117 10078 20039 51006
Loading
Personal Weather Stations






























Interactive Weather Map
Tropical Storm Tracking
New forecast layout! Learn more

10-Day Weather Forecast

Advertisements
Track Severe Weather on mobile